sensor_id;sensor_type;location;lat;lon;timestamp;P1;durP1;ratioP1;P2;durP2;ratioP2
2031;SDS011;27625;50.422;7.944;2024-03-06T00:00:02;19.43;;;12.60;;
2031;SDS011;27625;50.422;7.944;2024-03-06T00:02:29;20.83;;;12.83;;
2031;SDS011;27625;50.422;7.944;2024-03-06T00:04:56;20.30;;;12.60;;
2031;SDS011;27625;50.422;7.944;2024-03-06T00:07:24;23.43;;;12.27;;
2031;SDS011;27625;50.422;7.944;2024-03-06T00:09:51;19.87;;;11.63;;
2031;SDS011;27625;50.422;7.944;2024-03-06T00:12:19;18.90;;;12.20;;
2031;SDS011;27625;50.422;7.944;2024-03-06T00:14:47;17.90;;;12.07;;
2031;SDS011;27625;50.422;7.944;2024-03-06T00:17:14;20.97;;;11.90;;
2031;SDS011;27625;50.422;7.944;2024-03-06T00:19:40;21.03;;;11.50;;
2031;SDS011;27625;50.422;7.944;2024-03-06T00:22:09;22.33;;;12.10;;
2031;SDS011;27625;50.422;7.944;2024-03-06T00:24:36;21.80;;;11.83;;
2031;SDS011;27625;50.422;7.944;2024-03-06T00:27:03;20.10;;;12.50;;
2031;SDS011;27625;50.422;7.944;2024-03-06T00:29:32;21.33;;;12.67;;
2031;SDS011;27625;50.422;7.944;2024-03-06T00:32:01;21.03;;;11.57;;
2031;SDS011;27625;50.422;7.944;2024-03-06T00:34:29;20.27;;;12.60;;
2031;SDS011;27625;50.422;7.944;2024-03-06T00:36:57;19.87;;;12.20;;
2031;SDS011;27625;50.422;7.944;2024-03-06T00:39:24;19.20;;;11.63;;
2031;SDS011;27625;50.422;7.944;2024-03-06T00:41:51;23.87;;;13.00;;
2031;SDS011;27625;50.422;7.944;2024-03-06T00:44:18;18.23;;;12.27;;
2031;SDS011;27625;50.422;7.944;2024-03-06T00:46:52;20.13;;;12.60;;
2031;SDS011;27625;50.422;7.944;2024-03-06T00:49:19;20.87;;;12.23;;
2031;SDS011;27625;50.422;7.944;2024-03-06T00:51:46;18.80;;;12.53;;
2031;SDS011;27625;50.422;7.944;2024-03-06T00:54:12;23.10;;;13.17;;
2031;SDS011;27625;50.422;7.944;2024-03-06T00:56:39;22.87;;;11.83;;
2031;SDS011;27625;50.422;7.944;2024-03-06T00:59:05;22.00;;;14.13;;
2031;SDS011;27625;50.422;7.944;2024-03-06T01:01:32;24.27;;;14.87;;
2031;SDS011;27625;50.422;7.944;2024-03-06T01:04:07;22.27;;;12.57;;
2031;SDS011;27625;50.422;7.944;2024-03-06T01:06:34;22.33;;;11.97;;
2031;SDS011;27625;50.422;7.944;2024-03-06T01:09:04;18.13;;;12.80;;
2031;SDS011;27625;50.422;7.944;2024-03-06T01:11:34;17.70;;;11.90;;
2031;SDS011;27625;50.422;7.944;2024-03-06T01:14:00;17.40;;;10.87;;
2031;SDS011;27625;50.422;7.944;2024-03-06T01:16:31;22.00;;;13.47;;
2031;SDS011;27625;50.422;7.944;2024-03-06T01:18:58;20.33;;;12.97;;
2031;SDS011;27625;50.422;7.944;2024-03-06T01:21:26;20.83;;;13.27;;
2031;SDS011;27625;50.422;7.944;2024-03-06T01:23:56;25.70;;;15.07;;
2031;SDS011;27625;50.422;7.944;2024-03-06T01:26:23;23.03;;;13.17;;
2031;SDS011;27625;50.422;7.944;2024-03-06T01:28:50;19.97;;;12.30;;
2031;SDS011;27625;50.422;7.944;2024-03-06T01:31:17;21.30;;;13.63;;
2031;SDS011;27625;50.422;7.944;2024-03-06T01:33:43;22.53;;;12.87;;
2031;SDS011;27625;50.422;7.944;2024-03-06T01:36:10;22.30;;;11.53;;
2031;SDS011;27625;50.422;7.944;2024-03-06T01:38:39;19.63;;;12.60;;
2031;SDS011;27625;50.422;7.944;2024-03-06T01:41:06;25.17;;;12.60;;
2031;SDS011;27625;50.422;7.944;2024-03-06T01:43:36;27.00;;;15.70;;
2031;SDS011;27625;50.422;7.944;2024-03-06T01:46:03;33.87;;;18.23;;
2031;SDS011;27625;50.422;7.944;2024-03-06T01:48:31;35.13;;;17.60;;
2031;SDS011;27625;50.422;7.944;2024-03-06T01:50:59;32.33;;;16.80;;
2031;SDS011;27625;50.422;7.944;2024-03-06T01:53:32;29.70;;;16.07;;
2031;SDS011;27625;50.422;7.944;2024-03-06T01:56:01;25.80;;;14.67;;
2031;SDS011;27625;50.422;7.944;2024-03-06T01:58:31;25.67;;;13.67;;
2031;SDS011;27625;50.422;7.944;2024-03-06T02:01:06;23.37;;;13.43;;
2031;SDS011;27625;50.422;7.944;2024-03-06T02:03:34;27.93;;;14.20;;
2031;SDS011;27625;50.422;7.944;2024-03-06T02:06:02;20.30;;;11.53;;
2031;SDS011;27625;50.422;7.944;2024-03-06T02:08:30;13.47;;;8.70;;
2031;SDS011;27625;50.422;7.944;2024-03-06T02:11:01;15.60;;;9.47;;
2031;SDS011;27625;50.422;7.944;2024-03-06T02:13:29;18.73;;;8.60;;
2031;SDS011;27625;50.422;7.944;2024-03-06T02:16:02;12.13;;;9.20;;
2031;SDS011;27625;50.422;7.944;2024-03-06T02:18:30;16.10;;;10.20;;
2031;SDS011;27625;50.422;7.944;2024-03-06T02:20:59;22.07;;;10.40;;
2031;SDS011;27625;50.422;7.944;2024-03-06T02:23:26;17.00;;;10.10;;
2031;SDS011;27625;50.422;7.944;2024-03-06T02:25:52;15.20;;;8.77;;
2031;SDS011;27625;50.422;7.944;2024-03-06T02:28:21;11.10;;;6.90;;
2031;SDS011;27625;50.422;7.944;2024-03-06T02:30:49;12.87;;;7.87;;
2031;SDS011;27625;50.422;7.944;2024-03-06T02:33:16;11.67;;;8.50;;
2031;SDS011;27625;50.422;7.944;2024-03-06T02:35:44;10.20;;;7.37;;
2031;SDS011;27625;50.422;7.944;2024-03-06T02:38:13;10.17;;;6.13;;
2031;SDS011;27625;50.422;7.944;2024-03-06T02:40:42;9.90;;;6.13;;
2031;SDS011;27625;50.422;7.944;2024-03-06T02:43:09;11.47;;;6.67;;
2031;SDS011;27625;50.422;7.944;2024-03-06T02:45:39;9.17;;;6.33;;
2031;SDS011;27625;50.422;7.944;2024-03-06T02:48:06;10.60;;;6.80;;
2031;SDS011;27625;50.422;7.944;2024-03-06T02:50:35;12.33;;;6.47;;
2031;SDS011;27625;50.422;7.944;2024-03-06T02:53:02;10.20;;;6.73;;
2031;SDS011;27625;50.422;7.944;2024-03-06T02:55:30;11.53;;;7.20;;
2031;SDS011;27625;50.422;7.944;2024-03-06T02:57:57;15.03;;;7.80;;
2031;SDS011;27625;50.422;7.944;2024-03-06T03:00:24;10.87;;;6.80;;
2031;SDS011;27625;50.422;7.944;2024-03-06T03:02:56;10.77;;;8.10;;
2031;SDS011;27625;50.422;7.944;2024-03-06T03:05:38;14.60;;;8.23;;
2031;SDS011;27625;50.422;7.944;2024-03-06T03:08:06;10.73;;;7.50;;
2031;SDS011;27625;50.422;7.944;2024-03-06T03:10:35;10.73;;;6.67;;
2031;SDS011;27625;50.422;7.944;2024-03-06T03:13:04;10.27;;;7.07;;
2031;SDS011;27625;50.422;7.944;2024-03-06T03:15:37;13.63;;;8.10;;
2031;SDS011;27625;50.422;7.944;2024-03-06T03:18:05;12.23;;;7.10;;
2031;SDS011;27625;50.422;7.944;2024-03-06T03:20:34;9.73;;;7.00;;
2031;SDS011;27625;50.422;7.944;2024-03-06T03:23:02;9.90;;;6.60;;
2031;SDS011;27625;50.422;7.944;2024-03-06T03:25:36;12.40;;;6.87;;
2031;SDS011;27625;50.422;7.944;2024-03-06T03:28:03;13.10;;;7.50;;
2031;SDS011;27625;50.422;7.944;2024-03-06T03:30:32;19.43;;;8.60;;
2031;SDS011;27625;50.422;7.944;2024-03-06T03:32:59;17.13;;;9.03;;
2031;SDS011;27625;50.422;7.944;2024-03-06T03:35:25;25.67;;;12.77;;
2031;SDS011;27625;50.422;7.944;2024-03-06T03:37:52;25.07;;;12.00;;
2031;SDS011;27625;50.422;7.944;2024-03-06T03:40:20;41.60;;;14.90;;
2031;SDS011;27625;50.422;7.944;2024-03-06T03:42:48;44.60;;;17.27;;
2031;SDS011;27625;50.422;7.944;2024-03-06T03:45:15;48.07;;;20.63;;
2031;SDS011;27625;50.422;7.944;2024-03-06T03:47:46;44.43;;;18.50;;
2031;SDS011;27625;50.422;7.944;2024-03-06T03:50:13;45.53;;;21.33;;
2031;SDS011;27625;50.422;7.944;2024-03-06T03:52:40;53.80;;;22.20;;
2031;SDS011;27625;50.422;7.944;2024-03-06T03:55:16;70.63;;;25.43;;
2031;SDS011;27625;50.422;7.944;2024-03-06T03:57:44;49.10;;;20.60;;
2031;SDS011;27625;50.422;7.944;2024-03-06T04:00:13;36.50;;;17.27;;
2031;SDS011;27625;50.422;7.944;2024-03-06T04:02:41;37.30;;;15.90;;
2031;SDS011;27625;50.422;7.944;2024-03-06T04:05:08;25.07;;;11.83;;
2031;SDS011;27625;50.422;7.944;2024-03-06T04:07:37;16.87;;;9.67;;
2031;SDS011;27625;50.422;7.944;2024-03-06T04:10:08;14.13;;;7.67;;
2031;SDS011;27625;50.422;7.944;2024-03-06T04:12:36;11.50;;;6.67;;
2031;SDS011;27625;50.422;7.944;2024-03-06T04:15:09;11.67;;;6.63;;
2031;SDS011;27625;50.422;7.944;2024-03-06T04:17:45;10.13;;;6.67;;
2031;SDS011;27625;50.422;7.944;2024-03-06T04:20:13;8.47;;;6.70;;
2031;SDS011;27625;50.422;7.944;2024-03-06T04:22:41;11.80;;;7.33;;
2031;SDS011;27625;50.422;7.944;2024-03-06T04:25:08;8.93;;;6.27;;
2031;SDS011;27625;50.422;7.944;2024-03-06T04:27:36;10.97;;;6.93;;
2031;SDS011;27625;50.422;7.944;2024-03-06T04:30:09;12.43;;;7.33;;
2031;SDS011;27625;50.422;7.944;2024-03-06T04:32:37;14.20;;;8.13;;
2031;SDS011;27625;50.422;7.944;2024-03-06T04:35:12;12.63;;;9.13;;
2031;SDS011;27625;50.422;7.944;2024-03-06T04:37:41;10.47;;;7.93;;
2031;SDS011;27625;50.422;7.944;2024-03-06T04:40:11;12.50;;;7.67;;
2031;SDS011;27625;50.422;7.944;2024-03-06T04:42:42;10.27;;;7.60;;
2031;SDS011;27625;50.422;7.944;2024-03-06T04:45:10;14.43;;;8.00;;
2031;SDS011;27625;50.422;7.944;2024-03-06T04:47:43;13.70;;;8.90;;
2031;SDS011;27625;50.422;7.944;2024-03-06T04:50:18;12.20;;;7.60;;
2031;SDS011;27625;50.422;7.944;2024-03-06T04:52:46;13.03;;;8.33;;
2031;SDS011;27625;50.422;7.944;2024-03-06T04:55:12;17.57;;;8.27;;
2031;SDS011;27625;50.422;7.944;2024-03-06T05:00:10;12.47;;;8.53;;
2031;SDS011;27625;50.422;7.944;2024-03-06T05:02:43;15.23;;;8.90;;
2031;SDS011;27625;50.422;7.944;2024-03-06T05:05:11;14.27;;;8.37;;
2031;SDS011;27625;50.422;7.944;2024-03-06T05:07:39;14.70;;;9.40;;
2031;SDS011;27625;50.422;7.944;2024-03-06T05:10:07;20.20;;;10.37;;
2031;SDS011;27625;50.422;7.944;2024-03-06T05:12:39;18.63;;;10.57;;
2031;SDS011;27625;50.422;7.944;2024-03-06T05:17:47;20.57;;;12.33;;
2031;SDS011;27625;50.422;7.944;2024-03-06T05:20:14;18.60;;;11.03;;
2031;SDS011;27625;50.422;7.944;2024-03-06T05:22:44;23.00;;;10.87;;
2031;SDS011;27625;50.422;7.944;2024-03-06T05:25:12;26.37;;;12.30;;
2031;SDS011;27625;50.422;7.944;2024-03-06T05:27:39;22.73;;;12.23;;
2031;SDS011;27625;50.422;7.944;2024-03-06T05:30:07;21.67;;;12.10;;
2031;SDS011;27625;50.422;7.944;2024-03-06T05:32:34;20.60;;;12.03;;
2031;SDS011;27625;50.422;7.944;2024-03-06T05:35:01;25.53;;;11.53;;
2031;SDS011;27625;50.422;7.944;2024-03-06T05:37:29;27.67;;;12.70;;
2031;SDS011;27625;50.422;7.944;2024-03-06T05:39:57;20.10;;;12.23;;
2031;SDS011;27625;50.422;7.944;2024-03-06T05:42:23;23.70;;;12.27;;
2031;SDS011;27625;50.422;7.944;2024-03-06T05:44:50;20.60;;;12.40;;
2031;SDS011;27625;50.422;7.944;2024-03-06T05:47:19;24.90;;;12.90;;
2031;SDS011;27625;50.422;7.944;2024-03-06T05:49:47;19.27;;;10.33;;
2031;SDS011;27625;50.422;7.944;2024-03-06T05:52:13;21.67;;;11.00;;
2031;SDS011;27625;50.422;7.944;2024-03-06T05:54:40;26.63;;;11.53;;
2031;SDS011;27625;50.422;7.944;2024-03-06T05:57:09;16.83;;;8.80;;
2031;SDS011;27625;50.422;7.944;2024-03-06T05:59:38;19.47;;;11.30;;
2031;SDS011;27625;50.422;7.944;2024-03-06T06:02:06;21.63;;;11.00;;
2031;SDS011;27625;50.422;7.944;2024-03-06T06:04:34;22.33;;;11.50;;
2031;SDS011;27625;50.422;7.944;2024-03-06T06:07:02;19.83;;;9.20;;
2031;SDS011;27625;50.422;7.944;2024-03-06T06:09:35;17.43;;;10.13;;
2031;SDS011;27625;50.422;7.944;2024-03-06T06:12:02;17.47;;;9.13;;
2031;SDS011;27625;50.422;7.944;2024-03-06T06:14:31;19.60;;;9.30;;
2031;SDS011;27625;50.422;7.944;2024-03-06T06:16:58;20.73;;;10.27;;
2031;SDS011;27625;50.422;7.944;2024-03-06T06:19:31;20.73;;;9.73;;
2031;SDS011;27625;50.422;7.944;2024-03-06T06:21:58;18.40;;;9.80;;
2031;SDS011;27625;50.422;7.944;2024-03-06T06:24:27;16.10;;;9.87;;
2031;SDS011;27625;50.422;7.944;2024-03-06T06:26:55;17.03;;;8.90;;
2031;SDS011;27625;50.422;7.944;2024-03-06T06:29:23;18.30;;;9.00;;
2031;SDS011;27625;50.422;7.944;2024-03-06T06:31:53;21.97;;;10.50;;
2031;SDS011;27625;50.422;7.944;2024-03-06T06:34:27;19.90;;;10.87;;
2031;SDS011;27625;50.422;7.944;2024-03-06T06:36:55;17.97;;;10.20;;
2031;SDS011;27625;50.422;7.944;2024-03-06T06:39:22;15.17;;;8.93;;
2031;SDS011;27625;50.422;7.944;2024-03-06T06:41:51;21.20;;;12.00;;
2031;SDS011;27625;50.422;7.944;2024-03-06T06:44:20;15.50;;;9.97;;
2031;SDS011;27625;50.422;7.944;2024-03-06T06:46:47;20.30;;;11.03;;
2031;SDS011;27625;50.422;7.944;2024-03-06T06:51:56;21.07;;;12.73;;
2031;SDS011;27625;50.422;7.944;2024-03-06T06:54:29;19.20;;;11.90;;
2031;SDS011;27625;50.422;7.944;2024-03-06T06:56:57;21.80;;;11.70;;
2031;SDS011;27625;50.422;7.944;2024-03-06T06:59:25;20.90;;;10.27;;
2031;SDS011;27625;50.422;7.944;2024-03-06T07:01:54;16.57;;;9.27;;
2031;SDS011;27625;50.422;7.944;2024-03-06T07:04:21;26.53;;;11.53;;
2031;SDS011;27625;50.422;7.944;2024-03-06T07:06:57;22.73;;;12.70;;
2031;SDS011;27625;50.422;7.944;2024-03-06T07:09:24;23.73;;;11.93;;
2031;SDS011;27625;50.422;7.944;2024-03-06T07:11:54;21.20;;;10.60;;
2031;SDS011;27625;50.422;7.944;2024-03-06T07:14:22;20.60;;;11.53;;
2031;SDS011;27625;50.422;7.944;2024-03-06T07:16:57;16.37;;;9.67;;
2031;SDS011;27625;50.422;7.944;2024-03-06T07:19:32;14.40;;;8.80;;
2031;SDS011;27625;50.422;7.944;2024-03-06T07:22:15;20.03;;;11.57;;
2031;SDS011;27625;50.422;7.944;2024-03-06T07:24:44;16.00;;;10.10;;
2031;SDS011;27625;50.422;7.944;2024-03-06T07:27:23;18.37;;;11.63;;
2031;SDS011;27625;50.422;7.944;2024-03-06T07:29:50;18.23;;;10.80;;
2031;SDS011;27625;50.422;7.944;2024-03-06T07:32:23;27.23;;;12.93;;
2031;SDS011;27625;50.422;7.944;2024-03-06T07:34:50;20.27;;;10.83;;
2031;SDS011;27625;50.422;7.944;2024-03-06T07:37:18;22.00;;;10.47;;
2031;SDS011;27625;50.422;7.944;2024-03-06T07:39:48;18.40;;;9.33;;
2031;SDS011;27625;50.422;7.944;2024-03-06T07:42:21;15.50;;;8.60;;
2031;SDS011;27625;50.422;7.944;2024-03-06T07:44:48;16.23;;;8.80;;
2031;SDS011;27625;50.422;7.944;2024-03-06T07:47:16;17.10;;;9.47;;
2031;SDS011;27625;50.422;7.944;2024-03-06T07:52:23;23.70;;;9.60;;
2031;SDS011;27625;50.422;7.944;2024-03-06T07:54:50;14.47;;;8.27;;
2031;SDS011;27625;50.422;7.944;2024-03-06T07:57:17;16.50;;;9.53;;
2031;SDS011;27625;50.422;7.944;2024-03-06T07:59:43;14.90;;;8.90;;
2031;SDS011;27625;50.422;7.944;2024-03-06T08:02:14;16.67;;;8.40;;
2031;SDS011;27625;50.422;7.944;2024-03-06T08:04:41;15.33;;;9.20;;
2031;SDS011;27625;50.422;7.944;2024-03-06T08:07:10;15.90;;;8.53;;
2031;SDS011;27625;50.422;7.944;2024-03-06T08:09:38;15.87;;;9.77;;
2031;SDS011;27625;50.422;7.944;2024-03-06T08:12:11;19.30;;;10.73;;
2031;SDS011;27625;50.422;7.944;2024-03-06T08:14:39;17.10;;;9.23;;
2031;SDS011;27625;50.422;7.944;2024-03-06T08:17:07;15.40;;;9.20;;
2031;SDS011;27625;50.422;7.944;2024-03-06T08:19:38;17.73;;;9.20;;
2031;SDS011;27625;50.422;7.944;2024-03-06T08:22:04;19.17;;;10.33;;
2031;SDS011;27625;50.422;7.944;2024-03-06T08:24:40;19.43;;;10.30;;
2031;SDS011;27625;50.422;7.944;2024-03-06T08:27:10;18.30;;;11.43;;
2031;SDS011;27625;50.422;7.944;2024-03-06T08:29:37;16.47;;;9.83;;
2031;SDS011;27625;50.422;7.944;2024-03-06T08:34:34;23.60;;;10.77;;
2031;SDS011;27625;50.422;7.944;2024-03-06T08:37:01;21.83;;;11.37;;
2031;SDS011;27625;50.422;7.944;2024-03-06T08:42:00;15.53;;;9.23;;
2031;SDS011;27625;50.422;7.944;2024-03-06T08:44:28;16.60;;;10.90;;
2031;SDS011;27625;50.422;7.944;2024-03-06T08:46:55;15.00;;;9.60;;
2031;SDS011;27625;50.422;7.944;2024-03-06T08:49:23;18.27;;;11.17;;
2031;SDS011;27625;50.422;7.944;2024-03-06T08:51:50;18.07;;;10.10;;
2031;SDS011;27625;50.422;7.944;2024-03-06T08:54:16;18.50;;;11.00;;
2031;SDS011;27625;50.422;7.944;2024-03-06T08:56:44;16.97;;;10.10;;
2031;SDS011;27625;50.422;7.944;2024-03-06T09:01:44;19.43;;;10.70;;
2031;SDS011;27625;50.422;7.944;2024-03-06T09:04:13;24.40;;;11.10;;
2031;SDS011;27625;50.422;7.944;2024-03-06T09:06:40;16.50;;;8.80;;
2031;SDS011;27625;50.422;7.944;2024-03-06T09:09:09;18.10;;;10.57;;
2031;SDS011;27625;50.422;7.944;2024-03-06T09:11:38;17.17;;;9.47;;
2031;SDS011;27625;50.422;7.944;2024-03-06T09:14:06;15.73;;;9.63;;
2031;SDS011;27625;50.422;7.944;2024-03-06T09:16:35;17.37;;;10.47;;
2031;SDS011;27625;50.422;7.944;2024-03-06T09:19:02;18.40;;;10.50;;
2031;SDS011;27625;50.422;7.944;2024-03-06T09:21:31;18.47;;;10.80;;
2031;SDS011;27625;50.422;7.944;2024-03-06T09:23:58;19.40;;;10.00;;
2031;SDS011;27625;50.422;7.944;2024-03-06T09:26:26;19.07;;;12.37;;
2031;SDS011;27625;50.422;7.944;2024-03-06T09:28:55;19.43;;;11.40;;
2031;SDS011;27625;50.422;7.944;2024-03-06T09:31:23;20.30;;;11.67;;
2031;SDS011;27625;50.422;7.944;2024-03-06T09:33:52;20.07;;;11.43;;
2031;SDS011;27625;50.422;7.944;2024-03-06T09:36:20;21.90;;;11.80;;
2031;SDS011;27625;50.422;7.944;2024-03-06T09:38:49;18.80;;;11.50;;
2031;SDS011;27625;50.422;7.944;2024-03-06T09:41:15;31.53;;;11.30;;
2031;SDS011;27625;50.422;7.944;2024-03-06T09:43:43;22.03;;;10.17;;
2031;SDS011;27625;50.422;7.944;2024-03-06T09:46:10;19.37;;;11.77;;
2031;SDS011;27625;50.422;7.944;2024-03-06T09:48:38;19.50;;;11.40;;
2031;SDS011;27625;50.422;7.944;2024-03-06T09:51:14;21.43;;;11.93;;
2031;SDS011;27625;50.422;7.944;2024-03-06T09:53:41;21.23;;;11.33;;
2031;SDS011;27625;50.422;7.944;2024-03-06T09:56:10;21.57;;;11.83;;
2031;SDS011;27625;50.422;7.944;2024-03-06T09:58:37;30.27;;;12.90;;
2031;SDS011;27625;50.422;7.944;2024-03-06T10:01:06;22.30;;;11.47;;
2031;SDS011;27625;50.422;7.944;2024-03-06T10:03:36;24.97;;;13.57;;
2031;SDS011;27625;50.422;7.944;2024-03-06T10:06:06;20.23;;;12.43;;
2031;SDS011;27625;50.422;7.944;2024-03-06T10:08:34;27.30;;;12.30;;
2031;SDS011;27625;50.422;7.944;2024-03-06T10:11:03;19.23;;;12.50;;
2031;SDS011;27625;50.422;7.944;2024-03-06T10:13:30;21.90;;;13.37;;
2031;SDS011;27625;50.422;7.944;2024-03-06T10:16:00;25.73;;;13.23;;
2031;SDS011;27625;50.422;7.944;2024-03-06T10:18:29;28.30;;;14.77;;
2031;SDS011;27625;50.422;7.944;2024-03-06T10:21:03;27.13;;;14.90;;
2031;SDS011;27625;50.422;7.944;2024-03-06T10:23:38;24.63;;;15.03;;
2031;SDS011;27625;50.422;7.944;2024-03-06T10:26:06;25.77;;;14.60;;
2031;SDS011;27625;50.422;7.944;2024-03-06T10:28:33;26.63;;;15.27;;
2031;SDS011;27625;50.422;7.944;2024-03-06T10:31:04;27.87;;;14.27;;
2031;SDS011;27625;50.422;7.944;2024-03-06T10:33:32;29.63;;;16.07;;
2031;SDS011;27625;50.422;7.944;2024-03-06T10:36:00;35.27;;;16.30;;
2031;SDS011;27625;50.422;7.944;2024-03-06T10:38:29;28.30;;;15.40;;
2031;SDS011;27625;50.422;7.944;2024-03-06T10:41:03;25.63;;;14.70;;
2031;SDS011;27625;50.422;7.944;2024-03-06T10:43:32;29.63;;;14.80;;
2031;SDS011;27625;50.422;7.944;2024-03-06T10:46:01;32.03;;;17.70;;
2031;SDS011;27625;50.422;7.944;2024-03-06T10:48:32;31.03;;;15.93;;
2031;SDS011;27625;50.422;7.944;2024-03-06T10:51:00;29.60;;;14.93;;
2031;SDS011;27625;50.422;7.944;2024-03-06T10:53:28;26.13;;;14.57;;
2031;SDS011;27625;50.422;7.944;2024-03-06T10:55:57;23.30;;;14.13;;
2031;SDS011;27625;50.422;7.944;2024-03-06T10:58:26;27.90;;;14.90;;
2031;SDS011;27625;50.422;7.944;2024-03-06T11:00:54;28.03;;;15.00;;
2031;SDS011;27625;50.422;7.944;2024-03-06T11:03:23;28.43;;;14.53;;
2031;SDS011;27625;50.422;7.944;2024-03-06T11:05:51;30.47;;;14.67;;
2031;SDS011;27625;50.422;7.944;2024-03-06T11:08:18;29.33;;;14.70;;
2031;SDS011;27625;50.422;7.944;2024-03-06T11:10:46;24.37;;;14.30;;
2031;SDS011;27625;50.422;7.944;2024-03-06T11:13:26;22.50;;;14.07;;
2031;SDS011;27625;50.422;7.944;2024-03-06T11:15:56;24.77;;;13.50;;
2031;SDS011;27625;50.422;7.944;2024-03-06T11:21:29;24.60;;;13.33;;
2031;SDS011;27625;50.422;7.944;2024-03-06T11:26:43;27.03;;;13.83;;
2031;SDS011;27625;50.422;7.944;2024-03-06T11:29:13;23.23;;;13.70;;
2031;SDS011;27625;50.422;7.944;2024-03-06T11:31:55;25.83;;;14.07;;
2031;SDS011;27625;50.422;7.944;2024-03-06T11:34:25;23.40;;;12.73;;
2031;SDS011;27625;50.422;7.944;2024-03-06T11:36:53;23.60;;;12.60;;
2031;SDS011;27625;50.422;7.944;2024-03-06T11:39:20;22.77;;;12.93;;
2031;SDS011;27625;50.422;7.944;2024-03-06T11:41:48;21.83;;;12.33;;
2031;SDS011;27625;50.422;7.944;2024-03-06T11:44:20;18.23;;;11.80;;
2031;SDS011;27625;50.422;7.944;2024-03-06T11:46:57;21.03;;;11.87;;
2031;SDS011;27625;50.422;7.944;2024-03-06T11:49:30;25.83;;;13.50;;
2031;SDS011;27625;50.422;7.944;2024-03-06T11:52:05;20.73;;;12.30;;
2031;SDS011;27625;50.422;7.944;2024-03-06T11:54:33;18.93;;;11.27;;
2031;SDS011;27625;50.422;7.944;2024-03-06T11:57:04;19.30;;;11.53;;
2031;SDS011;27625;50.422;7.944;2024-03-06T11:59:34;17.90;;;10.30;;
2031;SDS011;27625;50.422;7.944;2024-03-06T12:02:04;21.20;;;10.80;;
2031;SDS011;27625;50.422;7.944;2024-03-06T12:04:33;19.93;;;11.13;;
2031;SDS011;27625;50.422;7.944;2024-03-06T12:07:04;18.90;;;10.33;;
2031;SDS011;27625;50.422;7.944;2024-03-06T12:09:32;13.00;;;9.00;;
2031;SDS011;27625;50.422;7.944;2024-03-06T12:11:59;20.67;;;11.70;;
2031;SDS011;27625;50.422;7.944;2024-03-06T12:14:27;19.93;;;11.27;;
2031;SDS011;27625;50.422;7.944;2024-03-06T12:16:55;22.03;;;11.93;;
2031;SDS011;27625;50.422;7.944;2024-03-06T12:19:24;20.80;;;11.13;;
2031;SDS011;27625;50.422;7.944;2024-03-06T12:21:53;21.90;;;11.10;;
2031;SDS011;27625;50.422;7.944;2024-03-06T12:24:22;16.60;;;10.60;;
2031;SDS011;27625;50.422;7.944;2024-03-06T12:26:59;17.23;;;10.57;;
2031;SDS011;27625;50.422;7.944;2024-03-06T12:29:28;15.70;;;9.83;;
2031;SDS011;27625;50.422;7.944;2024-03-06T12:31:58;17.50;;;10.57;;
2031;SDS011;27625;50.422;7.944;2024-03-06T12:34:31;16.80;;;9.97;;
2031;SDS011;27625;50.422;7.944;2024-03-06T12:37:07;16.30;;;9.43;;
2031;SDS011;27625;50.422;7.944;2024-03-06T12:39:34;15.00;;;9.10;;
2031;SDS011;27625;50.422;7.944;2024-03-06T12:42:03;14.50;;;8.80;;
2031;SDS011;27625;50.422;7.944;2024-03-06T12:44:30;13.70;;;9.30;;
2031;SDS011;27625;50.422;7.944;2024-03-06T12:46:58;13.67;;;10.10;;
2031;SDS011;27625;50.422;7.944;2024-03-06T12:49:27;15.20;;;8.93;;
2031;SDS011;27625;50.422;7.944;2024-03-06T12:52:03;12.87;;;9.10;;
2031;SDS011;27625;50.422;7.944;2024-03-06T12:54:30;16.47;;;9.67;;
2031;SDS011;27625;50.422;7.944;2024-03-06T12:56:57;15.77;;;8.93;;
2031;SDS011;27625;50.422;7.944;2024-03-06T12:59:24;15.73;;;9.10;;
2031;SDS011;27625;50.422;7.944;2024-03-06T13:01:53;15.43;;;9.03;;
2031;SDS011;27625;50.422;7.944;2024-03-06T13:04:21;14.50;;;8.97;;
2031;SDS011;27625;50.422;7.944;2024-03-06T13:06:49;15.93;;;9.63;;
2031;SDS011;27625;50.422;7.944;2024-03-06T13:09:19;13.80;;;8.50;;
2031;SDS011;27625;50.422;7.944;2024-03-06T13:11:48;11.93;;;8.10;;
2031;SDS011;27625;50.422;7.944;2024-03-06T13:14:21;14.70;;;9.20;;
2031;SDS011;27625;50.422;7.944;2024-03-06T13:16:50;11.53;;;8.30;;
2031;SDS011;27625;50.422;7.944;2024-03-06T13:19:21;13.90;;;8.87;;
2031;SDS011;27625;50.422;7.944;2024-03-06T13:21:50;14.40;;;8.23;;
2031;SDS011;27625;50.422;7.944;2024-03-06T13:24:17;12.67;;;8.33;;
2031;SDS011;27625;50.422;7.944;2024-03-06T13:26:44;9.87;;;6.67;;
2031;SDS011;27625;50.422;7.944;2024-03-06T13:29:11;12.97;;;7.80;;
2031;SDS011;27625;50.422;7.944;2024-03-06T13:31:44;11.20;;;7.50;;
2031;SDS011;27625;50.422;7.944;2024-03-06T13:34:13;10.93;;;7.63;;
2031;SDS011;27625;50.422;7.944;2024-03-06T13:36:41;12.93;;;7.83;;
2031;SDS011;27625;50.422;7.944;2024-03-06T13:39:09;10.47;;;7.67;;
2031;SDS011;27625;50.422;7.944;2024-03-06T13:41:36;10.70;;;6.53;;
2031;SDS011;27625;50.422;7.944;2024-03-06T13:44:05;9.53;;;7.00;;
2031;SDS011;27625;50.422;7.944;2024-03-06T13:46:33;9.37;;;5.87;;
2031;SDS011;27625;50.422;7.944;2024-03-06T13:49:01;12.83;;;8.30;;
2031;SDS011;27625;50.422;7.944;2024-03-06T13:51:28;12.53;;;7.20;;
2031;SDS011;27625;50.422;7.944;2024-03-06T13:53:58;10.30;;;7.37;;
2031;SDS011;27625;50.422;7.944;2024-03-06T13:56:25;12.57;;;7.13;;
2031;SDS011;27625;50.422;7.944;2024-03-06T13:58:52;12.13;;;7.10;;
2031;SDS011;27625;50.422;7.944;2024-03-06T14:01:19;9.53;;;6.60;;
2031;SDS011;27625;50.422;7.944;2024-03-06T14:03:52;9.80;;;6.30;;
2031;SDS011;27625;50.422;7.944;2024-03-06T14:06:20;10.07;;;7.10;;
2031;SDS011;27625;50.422;7.944;2024-03-06T14:08:51;11.33;;;6.80;;
2031;SDS011;27625;50.422;7.944;2024-03-06T14:11:21;10.33;;;6.60;;
2031;SDS011;27625;50.422;7.944;2024-03-06T14:13:48;9.67;;;6.67;;
2031;SDS011;27625;50.422;7.944;2024-03-06T14:16:18;9.47;;;6.20;;
2031;SDS011;27625;50.422;7.944;2024-03-06T14:18:48;11.10;;;7.17;;
2031;SDS011;27625;50.422;7.944;2024-03-06T14:21:17;13.77;;;7.30;;
2031;SDS011;27625;50.422;7.944;2024-03-06T14:23:52;12.47;;;7.33;;
2031;SDS011;27625;50.422;7.944;2024-03-06T14:26:18;10.20;;;6.57;;
2031;SDS011;27625;50.422;7.944;2024-03-06T14:28:46;11.20;;;6.97;;
2031;SDS011;27625;50.422;7.944;2024-03-06T14:31:13;10.20;;;5.97;;
2031;SDS011;27625;50.422;7.944;2024-03-06T14:33:40;12.63;;;7.00;;
2031;SDS011;27625;50.422;7.944;2024-03-06T14:36:07;10.23;;;6.63;;
2031;SDS011;27625;50.422;7.944;2024-03-06T14:38:35;12.23;;;7.27;;
2031;SDS011;27625;50.422;7.944;2024-03-06T14:41:02;10.00;;;6.77;;
2031;SDS011;27625;50.422;7.944;2024-03-06T14:43:32;11.17;;;6.47;;
2031;SDS011;27625;50.422;7.944;2024-03-06T14:46:00;11.37;;;6.30;;
2031;SDS011;27625;50.422;7.944;2024-03-06T14:48:27;10.37;;;6.70;;
2031;SDS011;27625;50.422;7.944;2024-03-06T14:50:54;10.80;;;7.40;;
2031;SDS011;27625;50.422;7.944;2024-03-06T14:53:22;11.30;;;7.23;;
2031;SDS011;27625;50.422;7.944;2024-03-06T14:55:49;14.60;;;7.90;;
2031;SDS011;27625;50.422;7.944;2024-03-06T14:58:16;14.37;;;8.30;;
2031;SDS011;27625;50.422;7.944;2024-03-06T15:00:43;14.03;;;9.10;;
2031;SDS011;27625;50.422;7.944;2024-03-06T15:03:11;14.37;;;9.10;;
2031;SDS011;27625;50.422;7.944;2024-03-06T15:05:38;10.83;;;7.10;;
2031;SDS011;27625;50.422;7.944;2024-03-06T15:08:05;9.23;;;6.13;;
2031;SDS011;27625;50.422;7.944;2024-03-06T15:10:32;10.50;;;6.33;;
2031;SDS011;27625;50.422;7.944;2024-03-06T15:13:00;11.97;;;6.23;;